createdAt,value
2022-09-21T00:01:05.033Z,100133.88
2022-09-21T00:03:32.721Z,100146.34
2022-09-21T00:06:06.540Z,100137.06
2022-09-21T00:08:34.385Z,100144.69
2022-09-21T00:11:01.936Z,100135.87
2022-09-21T00:13:29.343Z,100135.94
2022-09-21T00:15:56.976Z,100136.66
2022-09-21T00:18:24.352Z,100142.34
2022-09-21T00:20:52.756Z,100136.13
2022-09-21T00:23:20.428Z,100128.06
2022-09-21T00:25:47.793Z,100134.09
2022-09-21T00:28:15.145Z,100131.00
2022-09-21T00:30:42.733Z,100148.94
2022-09-21T00:33:10.094Z,100142.69
2022-09-21T00:35:38.156Z,100137.97
2022-09-21T00:38:06.173Z,100153.44
2022-09-21T00:40:33.603Z,100145.41
2022-09-21T00:43:16.582Z,100141.50
2022-09-21T00:45:44.782Z,100135.56
2022-09-21T00:48:12.149Z,100139.31
2022-09-21T00:50:41.482Z,100144.31
2022-09-21T00:53:09.111Z,100151.53
2022-09-21T00:55:49.238Z,100145.41
2022-09-21T00:58:19.377Z,100154.97
2022-09-21T01:00:46.732Z,100150.88
2022-09-21T01:03:14.101Z,100165.34
2022-09-21T01:05:41.705Z,100147.81
2022-09-21T01:08:10.075Z,100157.44
2022-09-21T01:10:46.848Z,100156.31
2022-09-21T01:13:26.577Z,100164.03
2022-09-21T01:16:16.009Z,100164.97
2022-09-21T01:18:51.713Z,100157.69
2022-09-21T01:21:23.236Z,100158.22
2022-09-21T01:24:02.846Z,100159.66
2022-09-21T01:26:38.040Z,100166.13
2022-09-21T01:29:23.478Z,100167.84
2022-09-21T01:32:00.769Z,100154.16
2022-09-21T01:34:36.551Z,100151.03
2022-09-21T01:37:07.206Z,100160.44
2022-09-21T01:39:35.031Z,100156.47
2022-09-21T01:42:03.699Z,100160.56
2022-09-21T01:44:33.451Z,100163.06
2022-09-21T01:47:02.055Z,100163.56
2022-09-21T01:49:36.349Z,100162.63
2022-09-21T01:52:16.892Z,100166.84
2022-09-21T01:54:47.928Z,100165.56
2022-09-21T01:57:23.320Z,100167.84
2022-09-21T01:59:55.746Z,100171.16
2022-09-21T02:02:43.092Z,100167.53
2022-09-21T02:05:10.877Z,100167.69
2022-09-21T02:07:39.406Z,100170.88
2022-09-21T02:10:07.951Z,100168.84
2022-09-21T02:12:35.569Z,100169.66
2022-09-21T02:15:03.040Z,100167.06
2022-09-21T02:17:36.219Z,100161.31
2022-09-21T02:20:09.804Z,100161.75
2022-09-21T02:23:06.567Z,100168.00
2022-09-21T02:25:45.797Z,100176.44
2022-09-21T02:28:32.685Z,100179.94
2022-09-21T02:31:18.897Z,100173.38
2022-09-21T02:33:59.338Z,100170.91
2022-09-21T02:36:35.639Z,100164.91
2022-09-21T02:39:20.878Z,100169.22
2022-09-21T02:42:08.640Z,100168.34
2022-09-21T02:44:40.533Z,100172.44
2022-09-21T02:47:13.123Z,100181.22
2022-09-21T02:49:51.888Z,100183.19
2022-09-21T02:52:19.996Z,100173.94
2022-09-21T02:54:50.073Z,100185.25
2022-09-21T02:57:18.368Z,100182.50
2022-09-21T02:59:46.007Z,100178.19
2022-09-21T03:02:13.384Z,100189.75
2022-09-21T03:04:43.818Z,100184.22
2022-09-21T03:07:11.397Z,100187.03
2022-09-21T03:09:38.789Z,100176.72
2022-09-21T03:12:06.154Z,100177.97
2022-09-21T03:14:33.736Z,100185.50
2022-09-21T03:17:01.077Z,100189.19
2022-09-21T03:19:29.298Z,100187.34
2022-09-21T03:21:56.930Z,100190.47
2022-09-21T03:24:43.017Z,100200.69
2022-09-21T03:27:10.473Z,100193.59
2022-09-21T03:29:37.747Z,100195.66
2022-09-21T03:32:05.243Z,100189.91
2022-09-21T03:34:34.334Z,100198.91
2022-09-21T03:37:02.531Z,100207.66
2022-09-21T03:39:29.889Z,100204.91
2022-09-21T03:41:57.661Z,100209.22
2022-09-21T03:44:25.559Z,100206.94
2022-09-21T03:46:53.061Z,100199.06
2022-09-21T03:49:20.722Z,100199.09
2022-09-21T03:51:48.059Z,100201.44
2022-09-21T03:54:15.603Z,100219.03
2022-09-21T03:56:43.245Z,100221.94
2022-09-21T03:59:13.947Z,100224.16
2022-09-21T04:01:42.453Z,100221.53
2022-09-21T04:04:10.384Z,100220.16
2022-09-21T04:06:37.733Z,100224.56
2022-09-21T04:09:05.127Z,100217.69
2022-09-21T04:11:33.469Z,100233.87
2022-09-21T04:14:02.370Z,100228.13
2022-09-21T04:16:29.710Z,100226.03
2022-09-21T04:18:57.361Z,100240.28
2022-09-21T04:21:24.717Z,100240.06
2022-09-21T04:23:52.112Z,100234.34
2022-09-21T04:26:26.702Z,100240.66
2022-09-21T04:28:54.109Z,100243.03
2022-09-21T04:31:22.435Z,100236.59
2022-09-21T04:33:53.527Z,100239.97
2022-09-21T04:36:21.688Z,100239.44
2022-09-21T04:38:49.404Z,100233.25
2022-09-21T04:41:16.867Z,100239.63
2022-09-21T04:43:45.096Z,100240.66
2022-09-21T04:46:14.352Z,100247.72
2022-09-21T04:48:41.865Z,100251.63
2022-09-21T04:51:09.672Z,100251.34
2022-09-21T04:53:38.313Z,100249.28
2022-09-21T04:56:06.043Z,100254.56
2022-09-21T04:58:33.464Z,100255.62
2022-09-21T05:01:01.784Z,100264.37
2022-09-21T05:03:29.160Z,100264.72
2022-09-21T05:05:56.914Z,100273.41
2022-09-21T05:08:44.005Z,100280.81
2022-09-21T05:11:15.994Z,100264.19
2022-09-21T05:13:43.608Z,100261.03
2022-09-21T05:16:11.068Z,100262.50
2022-09-21T05:18:38.484Z,100268.50
2022-09-21T05:21:07.347Z,100264.50
2022-09-21T05:23:34.681Z,100244.69
2022-09-21T05:26:02.129Z,100260.03
2022-09-21T05:28:30.180Z,100260.66
2022-09-21T05:31:18.473Z,100256.06
2022-09-21T05:33:57.361Z,100277.03
2022-09-21T05:36:46.442Z,100269.56
2022-09-21T05:39:14.417Z,100266.47
2022-09-21T05:41:42.009Z,100266.78
2022-09-21T05:44:14.606Z,100273.47
2022-09-21T05:46:56.357Z,100264.75
2022-09-21T05:49:36.389Z,100263.69
2022-09-21T05:52:22.813Z,100272.62
2022-09-21T05:54:52.492Z,100275.97
2022-09-21T05:57:35.823Z,100271.13
2022-09-21T06:00:13.242Z,100272.94
2022-09-21T06:02:46.808Z,100281.13
2022-09-21T06:05:14.718Z,100283.72
2022-09-21T06:07:42.356Z,100281.69
2022-09-21T06:10:10.549Z,100278.72
2022-09-21T06:12:37.928Z,100282.84
2022-09-21T06:15:06.873Z,100281.88
2022-09-21T06:17:34.695Z,100280.84
2022-09-21T06:20:03.202Z,100283.91
2022-09-21T06:22:30.814Z,100281.72
2022-09-21T06:24:58.141Z,100280.84
2022-09-21T06:27:25.504Z,100297.16
2022-09-21T06:29:53.220Z,100282.38
2022-09-21T06:32:20.917Z,100288.88
2022-09-21T06:34:49.881Z,100292.34
2022-09-21T06:37:17.556Z,100286.69
2022-09-21T06:39:44.890Z,100291.19
2022-09-21T06:42:12.279Z,100293.81
2022-09-21T06:44:40.555Z,100288.97
2022-09-21T06:47:07.943Z,100298.56
2022-09-21T06:49:37.207Z,100292.75
2022-09-21T06:52:08.122Z,100293.47
2022-09-21T06:54:35.470Z,100289.34
2022-09-21T06:57:03.170Z,100301.87
2022-09-21T06:59:31.056Z,100294.56
2022-09-21T07:01:58.678Z,100306.47
2022-09-21T07:04:26.473Z,100316.47
2022-09-21T07:06:54.275Z,100313.12
2022-09-21T07:12:09.781Z,100314.94
2022-09-21T07:14:37.101Z,100310.81
2022-09-21T07:17:04.701Z,100309.69
2022-09-21T07:19:32.352Z,100308.16
2022-09-21T07:21:59.812Z,100309.53
2022-09-21T07:24:27.149Z,100309.53
2022-09-21T07:26:54.810Z,100307.63
2022-09-21T07:29:22.177Z,100314.16
2022-09-21T07:31:49.547Z,100313.53
2022-09-21T07:34:17.184Z,100314.34
2022-09-21T07:36:44.555Z,100313.19
2022-09-21T07:39:12.425Z,100315.81
2022-09-21T07:41:40.053Z,100325.81
2022-09-21T07:44:07.793Z,100318.41
2022-09-21T07:46:41.228Z,100320.81
2022-09-21T07:49:12.463Z,100332.75
2022-09-21T07:51:39.819Z,100324.97
2022-09-21T07:54:09.786Z,100320.72
2022-09-21T07:56:37.438Z,100336.13
2022-09-21T07:59:08.151Z,100330.62
2022-09-21T08:01:39.779Z,100329.44
2022-09-21T08:04:09.083Z,100317.72
2022-09-21T08:06:40.161Z,100328.75
2022-09-21T08:09:08.753Z,100312.34
2022-09-21T08:11:37.476Z,100325.41
2022-09-21T08:14:05.228Z,100320.50
2022-09-21T08:16:33.919Z,100317.38
2022-09-21T08:19:02.269Z,100317.38
2022-09-21T08:21:29.879Z,100311.06
2022-09-21T08:23:57.829Z,100315.72
2022-09-21T08:26:25.211Z,100317.63
2022-09-21T08:28:53.012Z,100314.16
2022-09-21T08:31:21.862Z,100329.50
2022-09-21T08:33:49.919Z,100322.78
2022-09-21T08:36:18.285Z,100308.50
2022-09-21T08:38:45.946Z,100316.72
2022-09-21T08:41:36.028Z,100312.50
2022-09-21T08:44:12.136Z,100329.97
2022-09-21T08:46:39.825Z,100326.44
2022-09-21T08:49:16.447Z,100326.13
2022-09-21T08:51:51.925Z,100336.31
2022-09-21T08:54:25.179Z,100327.72
2022-09-21T08:57:04.865Z,100328.66
2022-09-21T08:59:34.381Z,100325.94
2022-09-21T09:02:13.740Z,100325.16
2022-09-21T09:04:41.523Z,100328.78
2022-09-21T09:07:17.857Z,100331.31
2022-09-21T09:10:03.553Z,100337.75
2022-09-21T09:12:39.754Z,100332.97
2022-09-21T09:15:14.434Z,100335.19
2022-09-21T09:17:53.713Z,100336.94
2022-09-21T09:20:25.091Z,100331.97
2022-09-21T09:23:12.617Z,100326.84
2022-09-21T09:25:42.031Z,100333.41
2022-09-21T09:28:28.489Z,100326.13
2022-09-21T09:31:11.260Z,100322.00
2022-09-21T09:34:24.949Z,100312.16
2022-09-21T09:36:59.165Z,100330.62
2022-09-21T09:39:28.614Z,100327.69
2022-09-21T09:42:04.129Z,100329.44
2022-09-21T09:44:38.907Z,100336.25
2022-09-21T09:47:19.016Z,100331.53
2022-09-21T09:50:08.401Z,100323.94
2022-09-21T09:52:36.087Z,100328.91
2022-09-21T09:55:20.623Z,100325.31
2022-09-21T09:57:51.810Z,100323.06
2022-09-21T10:00:19.906Z,100311.19
2022-09-21T10:02:51.770Z,100308.47
2022-09-21T10:05:23.978Z,100313.03
2022-09-21T10:07:51.969Z,100317.12
2022-09-21T10:10:38.170Z,100316.22
2022-09-21T10:13:20.095Z,100314.53
2022-09-21T10:15:54.754Z,100310.25
2022-09-21T10:18:30.255Z,100297.34
2022-09-21T10:21:07.537Z,100298.75
2022-09-21T10:23:35.894Z,100300.34
2022-09-21T10:26:11.255Z,100285.94
2022-09-21T10:28:55.295Z,100284.25
2022-09-21T10:31:24.116Z,100289.72
2022-09-21T10:34:06.538Z,100291.44
2022-09-21T10:36:35.394Z,100285.97
2022-09-21T10:39:21.444Z,100271.41
2022-09-21T10:42:05.347Z,100278.97
2022-09-21T10:44:43.132Z,100276.28
2022-09-21T10:47:28.465Z,100272.75
2022-09-21T10:49:57.308Z,100278.22
2022-09-21T10:52:26.045Z,100281.63
2022-09-21T10:54:55.123Z,100277.75
2022-09-21T10:57:24.034Z,100286.56
2022-09-21T10:59:52.469Z,100268.94
2022-09-21T11:02:36.158Z,100282.91
2022-09-21T11:05:11.256Z,100258.16
2022-09-21T11:07:57.535Z,100263.34
2022-09-21T11:10:44.535Z,100286.16
2022-09-21T11:13:23.478Z,100266.41
2022-09-21T11:16:01.894Z,100264.75
2022-09-21T11:18:45.410Z,100276.56
2022-09-21T11:21:20.125Z,100269.72
2022-09-21T11:24:21.391Z,100254.78
2022-09-21T11:26:59.280Z,100252.03
2022-09-21T11:29:42.749Z,100252.94
2022-09-21T11:32:16.757Z,100254.81
2022-09-21T11:34:57.374Z,100247.25
2022-09-21T11:37:55.837Z,100254.25
2022-09-21T11:40:32.408Z,100262.38
2022-09-21T11:43:02.801Z,100252.47
2022-09-21T11:46:01.429Z,100264.13
2022-09-21T11:48:32.859Z,100247.16
2022-09-21T11:51:00.066Z,100236.97
2022-09-21T11:54:20.517Z,100235.47
2022-09-21T11:56:58.523Z,100226.22
2022-09-21T11:59:35.125Z,100233.81
2022-09-21T12:02:24.614Z,100234.53
2022-09-21T12:05:18.028Z,100220.37
2022-09-21T12:07:56.324Z,100221.47
2022-09-21T12:10:32.876Z,100211.88
2022-09-21T12:13:06.755Z,100220.16
2022-09-21T12:15:51.917Z,100225.09
2022-09-21T12:18:45.982Z,100226.66
2022-09-21T12:21:16.917Z,100225.00
2022-09-21T12:23:50.675Z,100207.34
2022-09-21T12:26:20.829Z,100205.69
2022-09-21T12:28:52.024Z,100219.72
2022-09-21T12:31:53.985Z,100213.66
2022-09-21T12:34:45.551Z,100205.34
2022-09-21T12:37:18.133Z,100210.94
2022-09-21T12:39:51.487Z,100214.97
2022-09-21T12:42:25.162Z,100226.34
2022-09-21T12:45:08.047Z,100220.88
2022-09-21T12:47:41.600Z,100200.31
2022-09-21T12:50:35.839Z,100213.81
2022-09-21T12:53:03.872Z,100214.69
2022-09-21T12:55:36.995Z,100224.28
2022-09-21T12:58:27.345Z,100218.50
2022-09-21T13:01:18.210Z,100222.75
2022-09-21T13:04:16.234Z,100211.03
2022-09-21T13:07:02.418Z,100206.50
2022-09-21T13:09:33.027Z,100190.47
2022-09-21T13:12:08.737Z,100202.84
2022-09-21T13:14:36.793Z,100194.97
2022-09-21T13:17:05.087Z,100189.59
2022-09-21T13:19:33.872Z,100185.00
2022-09-21T13:22:14.408Z,100198.38
2022-09-21T13:24:42.537Z,100200.63
2022-09-21T13:27:10.117Z,100187.66
2022-09-21T13:29:39.971Z,100187.69
2022-09-21T13:32:10.700Z,100190.63
2022-09-21T13:34:42.624Z,100174.91
2022-09-21T13:37:16.811Z,100167.59
2022-09-21T13:40:04.136Z,100170.19
2022-09-21T13:42:34.739Z,100171.59
2022-09-21T13:45:13.620Z,100174.28
2022-09-21T13:47:49.240Z,100166.94
2022-09-21T13:50:41.517Z,100165.22
2022-09-21T13:53:25.661Z,100161.66
2022-09-21T13:56:01.473Z,100166.31
2022-09-21T13:58:37.574Z,100162.75
2022-09-21T14:01:09.934Z,100164.69
2022-09-21T14:03:58.329Z,100157.69
2022-09-21T14:06:35.710Z,100162.28
2022-09-21T14:09:05.887Z,100168.50
2022-09-21T14:11:37.680Z,100165.63
2022-09-21T14:14:09.470Z,100168.31
2022-09-21T14:16:39.917Z,100178.44
2022-09-21T14:19:19.839Z,100178.06
2022-09-21T14:22:08.390Z,100184.28
2022-09-21T14:24:41.473Z,100188.81
2022-09-21T14:27:33.316Z,100179.87
2022-09-21T14:30:20.773Z,100186.69
2022-09-21T14:33:12.126Z,100182.25
2022-09-21T14:35:41.969Z,100183.37
2022-09-21T14:38:18.417Z,100186.09
2022-09-21T14:40:51.411Z,100183.56
2022-09-21T14:43:35.253Z,100201.62
2022-09-21T14:46:30.186Z,100193.00
2022-09-21T14:49:00.221Z,100184.66
2022-09-21T14:51:55.688Z,100183.47
2022-09-21T14:54:57.138Z,100181.12
2022-09-21T14:57:58.794Z,100179.94
2022-09-21T15:00:48.640Z,100178.00
2022-09-21T15:03:23.963Z,100176.28
2022-09-21T15:06:27.812Z,100175.53
2022-09-21T15:09:42.656Z,100177.72
2022-09-21T15:12:16.729Z,100178.72
2022-09-21T15:14:47.168Z,100178.63
2022-09-21T15:17:29.829Z,100164.91
2022-09-21T15:20:03.602Z,100171.09
2022-09-21T15:22:31.957Z,100169.28
2022-09-21T15:25:04.004Z,100171.16
2022-09-21T15:27:33.095Z,100182.22
2022-09-21T15:30:05.523Z,100189.06
2022-09-21T15:32:40.534Z,100175.22
2022-09-21T15:35:19.973Z,100175.56
2022-09-21T15:37:47.460Z,100181.47
2022-09-21T15:40:20.690Z,100180.78
2022-09-21T15:43:19.570Z,100176.56
2022-09-21T15:46:06.382Z,100179.09
2022-09-21T15:48:35.298Z,100191.91
2022-09-21T15:51:14.546Z,100187.91
2022-09-21T15:53:51.082Z,100199.69
2022-09-21T15:56:23.500Z,100193.88
2022-09-21T15:58:51.046Z,100207.22
2022-09-21T16:01:23.300Z,100207.88
2022-09-21T16:04:06.059Z,100196.00
2022-09-21T16:06:38.409Z,100201.41
2022-09-21T16:09:24.336Z,100203.37
2022-09-21T16:11:55.310Z,100210.06
2022-09-21T16:14:41.792Z,100213.66
2022-09-21T16:17:09.163Z,100219.59
2022-09-21T16:19:53.853Z,100221.06
2022-09-21T16:22:44.257Z,100228.66
2022-09-21T16:25:25.308Z,100218.94
2022-09-21T16:27:55.484Z,100225.31
2022-09-21T16:30:42.914Z,100224.25
2022-09-21T16:33:35.536Z,100224.88
2022-09-21T16:36:04.719Z,100222.69
2022-09-21T16:38:33.630Z,100217.22
2022-09-21T16:41:01.957Z,100225.00
2022-09-21T16:43:29.893Z,100230.16
2022-09-21T16:45:57.617Z,100226.91
2022-09-21T16:48:24.978Z,100239.47
2022-09-21T16:50:54.230Z,100236.63
2022-09-21T16:53:23.544Z,100242.81
2022-09-21T16:55:53.670Z,100240.47
2022-09-21T16:58:21.670Z,100234.59
2022-09-21T17:01:00.799Z,100242.88
2022-09-21T17:03:31.576Z,100245.75
2022-09-21T17:05:58.986Z,100241.25
2022-09-21T17:08:29.922Z,100252.38
2022-09-21T17:10:58.005Z,100262.66
2022-09-21T17:13:26.745Z,100251.50
2022-09-21T17:15:54.649Z,100264.00
2022-09-21T17:18:22.331Z,100259.41
2022-09-21T17:20:49.718Z,100255.84
2022-09-21T17:23:17.081Z,100259.41
2022-09-21T17:25:45.673Z,100268.72
2022-09-21T17:28:15.353Z,100268.53
2022-09-21T17:30:42.893Z,100263.87
2022-09-21T17:33:10.744Z,100270.38
2022-09-21T17:35:41.864Z,100265.66
2022-09-21T17:38:14.177Z,100272.38
2022-09-21T17:40:43.084Z,100272.03
2022-09-21T17:43:13.372Z,100278.97
2022-09-21T17:45:58.926Z,100284.09
2022-09-21T17:48:30.597Z,100279.97
2022-09-21T17:51:00.865Z,100283.97
2022-09-21T17:53:34.436Z,100287.47
2022-09-21T17:56:13.242Z,100291.97
2022-09-21T17:58:48.681Z,100293.47
2022-09-21T18:01:26.811Z,100295.88
2022-09-21T18:03:54.659Z,100299.88
2022-09-21T18:06:23.414Z,100307.66
2022-09-21T18:08:50.972Z,100314.78
2022-09-21T18:11:30.281Z,100314.50
2022-09-21T18:14:17.298Z,100318.00
2022-09-21T18:17:12.736Z,100314.69
2022-09-21T18:20:02.511Z,100323.59
2022-09-21T18:22:48.390Z,100326.78
2022-09-21T18:25:21.374Z,100325.56
2022-09-21T18:27:50.518Z,100323.69
2022-09-21T18:30:18.842Z,100319.13
2022-09-21T18:32:58.458Z,100319.19
2022-09-21T18:35:38.738Z,100330.41
2022-09-21T18:38:17.397Z,100331.91
2022-09-21T18:40:57.016Z,100331.72
2022-09-21T18:43:29.697Z,100326.97
2022-09-21T18:46:14.823Z,100319.97
2022-09-21T18:48:54.358Z,100323.06
2022-09-21T18:51:34.637Z,100328.41
2022-09-21T18:54:02.479Z,100335.37
2022-09-21T18:56:35.197Z,100336.44
2022-09-21T18:59:03.401Z,100344.12
2022-09-21T19:01:33.951Z,100337.81
2022-09-21T19:04:01.913Z,100340.41
2022-09-21T19:06:40.355Z,100338.78
2022-09-21T19:09:25.122Z,100334.38
2022-09-21T19:12:14.400Z,100344.81
2022-09-21T19:14:57.415Z,100330.81
2022-09-21T19:17:47.634Z,100326.72
2022-09-21T19:20:33.499Z,100323.28
2022-09-21T19:23:31.049Z,100325.28
2022-09-21T19:26:29.965Z,100328.09
2022-09-21T19:29:12.900Z,100325.34
2022-09-21T19:31:41.949Z,100326.62
2022-09-21T19:34:15.040Z,100317.12
2022-09-21T19:36:44.310Z,100329.91
2022-09-21T19:39:13.058Z,100331.50
2022-09-21T19:41:47.804Z,100332.94
2022-09-21T19:44:28.742Z,100339.47
2022-09-21T19:47:06.746Z,100327.00
2022-09-21T19:49:46.243Z,100328.72
2022-09-21T19:52:16.590Z,100329.34
2022-09-21T19:55:03.143Z,100325.44
2022-09-21T19:57:49.206Z,100329.44
2022-09-21T20:00:17.662Z,100323.38
2022-09-21T20:03:09.037Z,100322.34
2022-09-21T20:05:55.884Z,100328.81
2022-09-21T20:08:48.907Z,100311.56
2022-09-21T20:11:45.801Z,100321.09
2022-09-21T20:14:32.928Z,100323.81
2022-09-21T20:17:00.877Z,100332.81
2022-09-21T20:19:34.550Z,100324.13
2022-09-21T20:22:04.769Z,100323.69
2022-09-21T20:24:49.291Z,100327.94
2022-09-21T20:27:20.888Z,100331.63
2022-09-21T20:29:48.505Z,100334.50
2022-09-21T20:32:15.945Z,100338.81
2022-09-21T20:34:43.565Z,100339.72
2022-09-21T20:37:14.248Z,100331.66
2022-09-21T20:39:42.280Z,100348.94
2022-09-21T20:42:19.282Z,100346.31
2022-09-21T20:44:46.880Z,100342.19
2022-09-21T20:47:14.248Z,100358.28
2022-09-21T20:49:41.589Z,100361.63
2022-09-21T20:52:11.207Z,100359.88
2022-09-21T20:54:38.581Z,100352.56
2022-09-21T20:57:05.962Z,100350.91
2022-09-21T20:59:33.560Z,100351.28
2022-09-21T21:02:01.010Z,100344.22
2022-09-21T21:04:28.995Z,100344.94
2022-09-21T21:06:57.021Z,100352.56
2022-09-21T21:09:25.319Z,100341.84
2022-09-21T21:11:52.660Z,100341.16
2022-09-21T21:14:20.558Z,100348.81
2022-09-21T21:16:48.156Z,100344.69
2022-09-21T21:19:16.197Z,100335.72
2022-09-21T21:21:44.444Z,100340.19
2022-09-21T21:24:30.664Z,100344.47
2022-09-21T21:27:02.365Z,100337.19
2022-09-21T21:29:31.078Z,100338.66
2022-09-21T21:31:59.556Z,100335.97
2022-09-21T21:34:27.096Z,100338.81
2022-09-21T21:36:54.445Z,100332.31
2022-09-21T21:39:22.053Z,100333.16
2022-09-21T21:41:49.385Z,100329.22
2022-09-21T21:44:16.787Z,100331.22
2022-09-21T21:46:44.471Z,100331.19
2022-09-21T21:49:11.801Z,100334.31
2022-09-21T21:51:39.514Z,100327.38
2022-09-21T21:54:07.348Z,100325.22
2022-09-21T21:56:34.766Z,100334.56
2022-09-21T21:59:02.074Z,100342.00
2022-09-21T22:01:29.903Z,100334.09
2022-09-21T22:03:59.493Z,100340.81
2022-09-21T22:06:27.696Z,100347.81
2022-09-21T22:08:55.416Z,100333.66
2022-09-21T22:11:25.069Z,100338.56
2022-09-21T22:13:53.840Z,100337.38
2022-09-21T22:16:22.509Z,100329.19
2022-09-21T22:18:50.570Z,100325.91
2022-09-21T22:21:26.186Z,100327.56
2022-09-21T22:23:55.043Z,100331.28
2022-09-21T22:26:22.593Z,100327.03
2022-09-21T22:28:58.516Z,100316.62
2022-09-21T22:31:28.496Z,100329.94
2022-09-21T22:33:55.906Z,100322.06
2022-09-21T22:36:24.005Z,100321.56
2022-09-21T22:38:52.402Z,100309.44
2022-09-21T22:41:22.088Z,100320.28
2022-09-21T22:43:51.042Z,100319.34
2022-09-21T22:46:18.827Z,100330.66
2022-09-21T22:48:46.310Z,100336.72
2022-09-21T22:51:14.486Z,100320.94
2022-09-21T22:53:42.217Z,100319.97
2022-09-21T22:56:18.965Z,100300.88
2022-09-21T22:58:47.931Z,100302.00
2022-09-21T23:01:20.272Z,100301.34
2022-09-21T23:03:48.785Z,100305.47
2022-09-21T23:06:17.309Z,100303.97
2022-09-21T23:08:48.965Z,100310.31
2022-09-21T23:11:27.456Z,100310.84
2022-09-21T23:13:55.510Z,100309.53
2022-09-21T23:16:23.535Z,100303.44
2022-09-21T23:18:51.043Z,100314.19
2022-09-21T23:21:20.239Z,100304.09
2022-09-21T23:23:47.870Z,100311.97
2022-09-21T23:26:20.013Z,100313.00
2022-09-21T23:28:56.427Z,100311.81
2022-09-21T23:31:24.024Z,100305.00
2022-09-21T23:33:52.340Z,100310.31
2022-09-21T23:36:21.833Z,100301.59
2022-09-21T23:38:49.321Z,100314.47
2022-09-21T23:41:18.915Z,100305.84
2022-09-21T23:43:46.388Z,100312.25
2022-09-21T23:46:15.326Z,100313.81
2022-09-21T23:48:43.066Z,100313.50
2022-09-21T23:51:10.754Z,100313.81
2022-09-21T23:53:38.149Z,100315.06
2022-09-21T23:56:06.224Z,100311.16
2022-09-21T23:58:33.695Z,100304.53
